createdAt,value
2022-09-02T00:01:28.234Z,0.30
2022-09-02T00:03:57.506Z,0.30
2022-09-02T00:06:25.221Z,0.30
2022-09-02T00:08:52.831Z,0.20
2022-09-02T00:11:22.352Z,0.40
2022-09-02T00:13:50.706Z,0.30
2022-09-02T00:16:18.419Z,0.30
2022-09-02T00:18:48.260Z,0.38
2022-09-02T00:21:16.422Z,0.30
2022-09-02T00:23:44.582Z,0.30
2022-09-02T00:26:13.159Z,0.30
2022-09-02T00:28:41.055Z,0.30
2022-09-02T00:31:19.595Z,0.30
2022-09-02T00:33:51.114Z,0.30
2022-09-02T00:36:18.884Z,0.40
2022-09-02T00:38:46.414Z,0.20
2022-09-02T00:41:14.357Z,0.40
2022-09-02T00:43:45.046Z,0.30
2022-09-02T00:46:14.085Z,0.30
2022-09-02T00:48:44.494Z,0.30
2022-09-02T00:51:38.095Z,0.30
2022-09-02T00:54:11.509Z,0.30
2022-09-02T00:56:40.550Z,0.30
2022-09-02T00:59:08.538Z,0.30
2022-09-02T01:01:36.175Z,0.28
2022-09-02T01:04:03.904Z,0.30
2022-09-02T01:06:33.615Z,0.35
2022-09-02T01:09:04.115Z,0.30
2022-09-02T01:11:39.046Z,0.30
2022-09-02T01:14:07.101Z,0.38
2022-09-02T01:16:38.174Z,0.30
2022-09-02T01:19:11.886Z,0.30
2022-09-02T01:21:41.637Z,0.20
2022-09-02T01:24:10.507Z,0.30
2022-09-02T01:26:38.051Z,0.30
2022-09-02T01:29:05.580Z,0.30
2022-09-02T01:31:33.322Z,0.30
2022-09-02T01:34:01.269Z,0.40
2022-09-02T01:36:28.770Z,0.30
2022-09-02T01:38:58.220Z,0.30
2022-09-02T01:41:27.724Z,0.30
2022-09-02T01:43:56.065Z,0.40
2022-09-02T01:46:24.011Z,0.35
2022-09-02T01:48:52.915Z,0.30
2022-09-02T01:51:21.377Z,0.30
2022-09-02T01:53:49.443Z,0.30
2022-09-02T01:56:17.480Z,0.30
2022-09-02T01:58:46.469Z,0.30
2022-09-02T02:01:14.087Z,0.30
2022-09-02T02:03:42.883Z,0.30
2022-09-02T02:06:12.135Z,0.30
2022-09-02T02:08:42.476Z,0.30
2022-09-02T02:11:10.745Z,0.30
2022-09-02T02:13:38.499Z,0.30
2022-09-02T02:16:08.181Z,0.30
2022-09-02T02:18:35.751Z,0.40
2022-09-02T02:21:05.432Z,0.30
2022-09-02T02:23:33.158Z,0.30
2022-09-02T02:26:00.801Z,0.30
2022-09-02T02:28:28.302Z,0.30
2022-09-02T02:30:56.369Z,0.32
2022-09-02T02:33:30.318Z,0.30
2022-09-02T02:36:04.607Z,0.30
2022-09-02T02:38:32.826Z,0.32
2022-09-02T02:41:01.958Z,0.40
2022-09-02T02:43:30.196Z,0.40
2022-09-02T02:45:58.011Z,0.30
2022-09-02T02:48:27.072Z,0.30
2022-09-02T02:50:55.147Z,0.40
2022-09-02T02:53:23.174Z,0.40
2022-09-02T02:55:51.515Z,0.40
2022-09-02T02:58:19.496Z,0.30
2022-09-02T03:00:48.888Z,0.40
2022-09-02T03:03:19.525Z,0.40
2022-09-02T03:05:51.232Z,0.30
2022-09-02T03:08:21.114Z,0.30
2022-09-02T03:10:53.880Z,0.40
2022-09-02T03:13:23.426Z,0.30
2022-09-02T03:15:51.462Z,0.40
2022-09-02T03:18:20.125Z,0.30
2022-09-02T03:20:50.946Z,0.30
2022-09-02T03:23:19.208Z,0.30
2022-09-02T03:25:49.609Z,0.30
2022-09-02T03:28:36.249Z,0.22
2022-09-02T03:31:05.813Z,0.30
2022-09-02T03:33:33.585Z,0.30
2022-09-02T03:36:02.542Z,0.30
2022-09-02T03:38:30.912Z,0.30
2022-09-02T03:40:58.577Z,0.30
2022-09-02T03:43:26.238Z,0.30
2022-09-02T03:45:53.812Z,0.30
2022-09-02T03:48:23.158Z,0.30
2022-09-02T03:50:50.935Z,0.30
2022-09-02T03:53:21.851Z,0.30
2022-09-02T03:55:55.884Z,0.30
2022-09-02T03:58:26.537Z,0.30
2022-09-02T04:00:56.195Z,0.30
2022-09-02T04:03:25.531Z,0.40
2022-09-02T04:05:53.392Z,0.35
2022-09-02T04:08:25.252Z,0.30
2022-09-02T04:10:56.220Z,0.40
2022-09-02T04:13:24.227Z,0.30
2022-09-02T04:15:51.914Z,0.30
2022-09-02T04:18:22.664Z,0.40
2022-09-02T04:20:52.113Z,0.30
2022-09-02T04:23:20.910Z,0.30
2022-09-02T04:25:50.504Z,0.30
2022-09-02T04:28:18.589Z,0.30
2022-09-02T04:30:48.603Z,0.30
2022-09-02T04:33:16.534Z,0.30
2022-09-02T04:35:48.797Z,0.30
2022-09-02T04:38:17.945Z,0.30
2022-09-02T04:44:28.609Z,0.30
2022-09-02T04:46:57.249Z,0.40
2022-09-02T04:49:32.721Z,0.30
2022-09-02T04:52:00.958Z,0.30
2022-09-02T04:54:31.190Z,0.30
2022-09-02T04:57:01.466Z,0.30
2022-09-02T04:59:32.126Z,0.30
2022-09-02T05:02:06.242Z,0.30
2022-09-02T05:04:34.306Z,0.30
2022-09-02T05:07:02.848Z,0.30
2022-09-02T05:09:33.669Z,0.30
2022-09-02T05:12:05.802Z,0.30
2022-09-02T05:14:43.610Z,0.35
2022-09-02T05:17:11.544Z,0.30
2022-09-02T05:19:43.012Z,0.30
2022-09-02T05:22:11.128Z,0.22
2022-09-02T05:24:43.263Z,0.30
2022-09-02T05:27:15.335Z,0.30
2022-09-02T05:29:45.661Z,0.30
2022-09-02T05:32:15.090Z,0.22
2022-09-02T05:34:44.335Z,0.30
2022-09-02T05:37:12.199Z,0.40
2022-09-02T05:39:39.820Z,0.30
2022-09-02T05:42:08.827Z,0.30
2022-09-02T05:44:37.242Z,0.20
2022-09-02T05:47:07.492Z,0.20
2022-09-02T05:49:35.484Z,0.20
2022-09-02T05:52:11.828Z,0.20
2022-09-02T05:54:46.120Z,0.20
2022-09-02T05:57:17.325Z,0.13
2022-09-02T06:00:00.539Z,0.10
2022-09-02T06:02:44.576Z,0.20
2022-09-02T06:05:21.974Z,0.20
2022-09-02T06:07:57.365Z,0.20
2022-09-02T06:10:25.454Z,0.10
2022-09-02T06:12:54.094Z,0.20
2022-09-02T06:15:28.489Z,0.20
2022-09-02T06:17:59.718Z,0.10
2022-09-02T06:20:33.275Z,0.10
2022-09-02T06:23:02.560Z,0.10
2022-09-02T06:25:30.231Z,0.10
2022-09-02T06:27:58.948Z,0.10
2022-09-02T06:30:26.926Z,0.10
2022-09-02T06:32:55.818Z,0.10
2022-09-02T06:35:25.655Z,0.10
2022-09-02T06:37:56.923Z,0.17
2022-09-02T06:40:25.238Z,0.10
2022-09-02T06:42:54.060Z,0.10
2022-09-02T06:45:34.319Z,0.10
2022-09-02T06:48:07.609Z,0.10
2022-09-02T06:50:41.123Z,0.10
2022-09-02T06:53:09.017Z,0.10
2022-09-02T06:55:39.232Z,0.10
2022-09-02T06:58:07.644Z,0.08
2022-09-02T07:00:37.484Z,0.00
2022-09-02T07:03:23.327Z,0.00
2022-09-02T07:06:00.847Z,0.00
2022-09-02T07:08:29.734Z,0.00
2022-09-02T07:10:58.189Z,0.00
2022-09-02T07:13:26.886Z,0.10
2022-09-02T07:15:55.245Z,0.10
2022-09-02T07:18:23.939Z,0.00
2022-09-02T07:20:51.960Z,0.00
2022-09-02T07:23:21.290Z,0.00
2022-09-02T07:25:49.087Z,0.03
2022-09-02T07:28:16.904Z,0.00
2022-09-02T07:30:45.585Z,0.00
2022-09-02T07:33:16.862Z,0.10
2022-09-02T07:35:46.957Z,0.00
2022-09-02T07:38:17.409Z,0.00
2022-09-02T07:51:50.035Z,0.00
2022-09-02T07:54:45.211Z,0.00
2022-09-02T07:57:14.175Z,0.00
2022-09-02T07:59:41.973Z,0.00
2022-09-02T08:02:09.909Z,0.00
2022-09-02T08:04:37.501Z,0.00
2022-09-02T08:07:08.257Z,0.00
2022-09-02T08:09:35.783Z,0.00
2022-09-02T08:12:03.758Z,0.00
2022-09-02T08:14:32.665Z,0.00
2022-09-02T08:17:00.186Z,0.00
2022-09-02T08:19:28.325Z,0.00
2022-09-02T08:21:56.567Z,0.00
2022-09-02T08:24:24.491Z,0.00
2022-09-02T08:26:52.172Z,0.00
2022-09-02T08:29:19.693Z,0.10
2022-09-02T08:31:50.828Z,0.00
2022-09-02T08:34:21.124Z,0.05
2022-09-02T08:36:56.772Z,0.00
2022-09-02T08:39:24.733Z,0.00
2022-09-02T08:41:55.814Z,0.00
2022-09-02T08:44:24.753Z,0.00
2022-09-02T08:46:57.346Z,0.00
2022-09-02T08:49:26.834Z,0.00
2022-09-02T08:51:56.168Z,0.00
2022-09-02T08:54:29.292Z,0.00
2022-09-02T08:56:58.069Z,0.00
2022-09-02T08:59:27.513Z,0.00
2022-09-02T09:01:58.611Z,0.00
2022-09-02T09:04:35.866Z,0.00
2022-09-02T09:07:09.478Z,0.00
2022-09-02T09:09:41.946Z,0.10
2022-09-02T09:12:13.631Z,0.10
2022-09-02T09:14:46.122Z,0.10
2022-09-02T09:17:19.358Z,0.10
2022-09-02T09:19:49.528Z,0.10
2022-09-02T09:22:19.421Z,0.10
2022-09-02T09:24:48.801Z,0.20
2022-09-02T09:27:18.102Z,0.20
2022-09-02T09:29:45.640Z,0.20
2022-09-02T09:32:20.438Z,0.13
2022-09-02T09:34:56.778Z,0.10
2022-09-02T09:37:32.699Z,0.20
2022-09-02T09:40:03.206Z,0.10
2022-09-02T09:42:32.117Z,0.20
2022-09-02T09:44:59.604Z,0.22
2022-09-02T09:47:28.543Z,0.20
2022-09-02T09:50:10.847Z,0.10
2022-09-02T09:52:39.243Z,0.20
2022-09-02T09:55:12.799Z,0.20
2022-09-02T09:57:41.172Z,0.20
2022-09-02T10:00:15.132Z,0.20
2022-09-02T10:02:49.079Z,0.20
2022-09-02T10:05:28.106Z,0.20
2022-09-02T10:07:56.520Z,0.20
2022-09-02T10:10:27.274Z,0.10
2022-09-02T10:12:56.086Z,0.20
2022-09-02T10:15:28.886Z,0.20
2022-09-02T10:18:01.499Z,0.20
2022-09-02T10:20:37.249Z,0.13
2022-09-02T10:23:19.396Z,0.20
2022-09-02T10:25:55.889Z,0.20
2022-09-02T10:28:30.782Z,0.10
2022-09-02T10:31:03.345Z,0.20
2022-09-02T10:33:36.951Z,0.20
2022-09-02T10:36:09.839Z,0.17
2022-09-02T10:38:41.727Z,0.20
2022-09-02T10:41:17.732Z,0.20
2022-09-02T10:43:56.891Z,0.20
2022-09-02T10:46:26.087Z,0.20
2022-09-02T10:48:57.846Z,0.20
2022-09-02T10:51:30.875Z,0.10
2022-09-02T11:23:41.169Z,0.17
2022-09-02T11:26:12.338Z,0.20
2022-09-02T11:28:44.457Z,0.20
2022-09-02T11:31:16.589Z,0.20
2022-09-02T11:33:50.429Z,0.15
2022-09-02T11:36:18.427Z,0.20
2022-09-02T11:38:51.276Z,0.10
2022-09-02T11:41:40.433Z,0.20
2022-09-02T11:44:29.392Z,0.20
2022-09-02T11:47:07.936Z,0.20
2022-09-02T11:49:49.381Z,0.20
2022-09-02T11:52:23.954Z,0.20
2022-09-02T11:55:02.652Z,0.20
2022-09-02T11:57:32.829Z,0.20
2022-09-02T12:00:06.970Z,0.13
2022-09-02T12:02:42.327Z,0.20
2022-09-02T12:05:29.675Z,0.20
2022-09-02T12:07:58.060Z,0.20
2022-09-02T12:10:40.941Z,0.20
2022-09-02T12:13:12.237Z,0.20
2022-09-02T12:15:40.571Z,0.10
2022-09-02T12:18:12.459Z,0.20
2022-09-02T12:21:07.557Z,0.10
2022-09-02T12:23:53.961Z,0.20
2022-09-02T12:30:28.290Z,0.10
2022-09-02T12:33:12.434Z,0.20
2022-09-02T12:35:57.576Z,0.13
2022-09-02T12:38:29.293Z,0.20
2022-09-02T12:41:27.711Z,0.20
2022-09-02T12:44:14.147Z,0.20
2022-09-02T12:46:49.360Z,0.20
2022-09-02T12:49:28.373Z,0.20
2022-09-02T12:51:57.875Z,0.20
2022-09-02T12:54:28.859Z,0.10
2022-09-02T12:56:56.518Z,0.10
2022-09-02T12:59:28.085Z,0.20
2022-09-02T13:02:02.554Z,0.10
2022-09-02T13:04:37.173Z,0.20
2022-09-02T13:07:23.437Z,0.20
2022-09-02T13:09:59.542Z,0.20
2022-09-02T13:12:45.923Z,0.20
2022-09-02T13:15:23.350Z,0.20
2022-09-02T13:18:11.054Z,0.20
2022-09-02T13:20:56.570Z,0.20
2022-09-02T13:23:44.961Z,0.10
2022-09-02T13:26:49.403Z,0.20
2022-09-02T13:29:44.697Z,0.10
2022-09-02T13:32:13.623Z,0.10
2022-09-02T13:34:42.511Z,0.20
2022-09-02T13:37:24.939Z,0.10
2022-09-02T13:39:52.458Z,0.10
2022-09-02T13:42:23.940Z,0.20
2022-09-02T13:44:52.266Z,0.10
2022-09-02T13:47:21.629Z,0.10
2022-09-02T13:49:50.607Z,0.20
2022-09-02T13:52:19.664Z,0.15
2022-09-02T13:54:50.656Z,0.10
2022-09-02T13:57:21.476Z,0.20
2022-09-02T13:59:51.379Z,0.15
2022-09-02T14:02:22.530Z,0.10
2022-09-02T14:04:51.253Z,0.10
2022-09-02T14:07:20.199Z,0.10
2022-09-02T14:09:47.904Z,0.10
2022-09-02T14:12:15.494Z,0.10
2022-09-02T14:14:43.465Z,0.10
2022-09-02T14:17:22.424Z,0.13
2022-09-02T14:19:50.325Z,0.13
2022-09-02T14:22:25.082Z,0.10
2022-09-02T14:24:52.664Z,0.10
2022-09-02T14:27:21.403Z,0.10
2022-09-02T14:29:51.084Z,0.10
2022-09-02T14:32:23.509Z,0.20
2022-09-02T14:35:09.097Z,0.10
2022-09-02T14:37:48.246Z,0.10
2022-09-02T14:40:16.198Z,0.20
2022-09-02T14:42:45.102Z,0.10
2022-09-02T14:45:13.306Z,0.10
2022-09-02T14:47:42.617Z,0.20
2022-09-02T14:50:12.784Z,0.10
2022-09-02T14:52:51.426Z,0.10
2022-09-02T14:55:37.915Z,0.20
2022-09-02T14:58:05.422Z,0.13
2022-09-02T15:00:34.714Z,0.20
2022-09-02T15:03:03.782Z,0.10
2022-09-02T15:05:31.346Z,0.20
2022-09-02T15:07:58.931Z,0.10
2022-09-02T15:10:27.848Z,0.20
2022-09-02T15:12:57.240Z,0.10
2022-09-02T15:15:25.587Z,0.20
2022-09-02T15:17:53.160Z,0.15
2022-09-02T15:20:22.735Z,0.10
2022-09-02T15:22:53.172Z,0.10
2022-09-02T15:25:21.116Z,0.20
2022-09-02T15:27:49.740Z,0.20
2022-09-02T15:30:17.580Z,0.10
2022-09-02T15:32:45.472Z,0.20
2022-09-02T15:35:13.087Z,0.10
2022-09-02T15:37:41.935Z,0.15
2022-09-02T15:40:10.106Z,0.10
2022-09-02T15:42:37.936Z,0.13
2022-09-02T15:45:08.610Z,0.10
2022-09-02T15:47:36.428Z,0.20
2022-09-02T15:50:04.298Z,0.20
2022-09-02T15:52:31.921Z,0.10
2022-09-02T15:55:00.787Z,0.10
2022-09-02T15:57:30.321Z,0.10
2022-09-02T15:59:57.861Z,0.20
2022-09-02T16:02:25.399Z,0.20
2022-09-02T16:04:53.022Z,0.10
2022-09-02T16:07:20.944Z,0.10
2022-09-02T16:09:48.542Z,0.20
2022-09-02T16:12:17.395Z,0.10
2022-09-02T16:14:45.716Z,0.20
2022-09-02T16:17:13.285Z,0.10
2022-09-02T16:19:40.863Z,0.10
2022-09-02T16:22:08.354Z,0.10
2022-09-02T16:24:35.858Z,0.10
2022-09-02T16:27:03.426Z,0.20
2022-09-02T16:29:32.963Z,0.10
2022-09-02T16:32:26.662Z,0.20
2022-09-02T16:34:49.080Z,0.20
2022-09-02T16:37:17.507Z,0.10
2022-09-02T16:39:45.128Z,0.20
2022-09-02T16:42:12.829Z,0.20
2022-09-02T16:44:41.727Z,0.20
2022-09-02T16:47:09.233Z,0.20
2022-09-02T16:49:41.516Z,0.20
2022-09-02T16:52:09.090Z,0.20
2022-09-02T16:54:40.788Z,0.10
2022-09-02T16:57:08.873Z,0.20
2022-09-02T16:59:36.384Z,0.10
2022-09-02T17:02:05.330Z,0.20
2022-09-02T17:04:32.977Z,0.10
2022-09-02T17:07:00.928Z,0.20
2022-09-02T17:09:28.486Z,0.20
2022-09-02T17:11:56.121Z,0.10
2022-09-02T17:14:23.618Z,0.20
2022-09-02T17:16:51.987Z,0.20
2022-09-02T17:19:22.837Z,0.10
2022-09-02T17:21:50.963Z,0.20
2022-09-02T17:24:19.282Z,0.30
2022-09-02T17:26:48.345Z,0.20
2022-09-02T17:29:37.937Z,0.10
2022-09-02T17:32:04.776Z,0.20
2022-09-02T17:34:34.150Z,0.10
2022-09-02T17:37:01.682Z,0.20
2022-09-02T17:39:30.435Z,0.20
2022-09-02T17:41:59.715Z,0.15
2022-09-02T17:44:28.087Z,0.17
2022-09-02T17:46:57.359Z,0.10
2022-09-02T17:49:24.845Z,0.10
2022-09-02T17:51:53.815Z,0.20
2022-09-02T17:54:21.363Z,0.20
2022-09-02T17:56:58.380Z,0.20
2022-09-02T17:59:28.723Z,0.20
2022-09-02T18:02:04.471Z,0.20
2022-09-02T18:04:37.171Z,0.20
2022-09-02T18:07:10.905Z,0.20
2022-09-02T18:09:39.290Z,0.20
2022-09-02T18:12:07.566Z,0.13
2022-09-02T18:14:37.454Z,0.10
2022-09-02T18:17:13.582Z,0.20
2022-09-02T18:19:47.876Z,0.20
2022-09-02T18:22:25.415Z,0.20
2022-09-02T18:24:59.693Z,0.20
2022-09-02T18:27:33.290Z,0.20
2022-09-02T18:30:03.926Z,0.20
2022-09-02T18:32:41.755Z,0.13
2022-09-02T18:35:16.479Z,0.20
2022-09-02T18:37:52.582Z,0.20
2022-09-02T18:40:26.171Z,0.20
2022-09-02T18:43:00.158Z,0.20
2022-09-02T18:45:33.841Z,0.20
2022-09-02T18:48:04.278Z,0.20
2022-09-02T18:50:51.900Z,0.20
2022-09-02T18:53:22.097Z,0.20
2022-09-02T18:55:50.494Z,0.20
2022-09-02T18:58:22.911Z,0.20
2022-09-02T19:00:53.799Z,0.20
2022-09-02T19:03:21.490Z,0.30
2022-09-02T19:05:49.015Z,0.20
2022-09-02T19:08:30.453Z,0.20
2022-09-02T19:11:02.534Z,0.20
2022-09-02T19:13:30.143Z,0.20
2022-09-02T19:16:02.627Z,0.10
2022-09-02T19:18:32.304Z,0.20
2022-09-02T19:21:00.098Z,0.20
2022-09-02T19:23:28.147Z,0.20
2022-09-02T19:25:55.708Z,0.20
2022-09-02T19:28:24.888Z,0.20
2022-09-02T19:30:54.188Z,0.20
2022-09-02T19:33:21.755Z,0.20
2022-09-02T19:35:50.540Z,0.20
2022-09-02T19:38:18.059Z,0.20
2022-09-02T19:40:49.541Z,0.20
2022-09-02T19:43:17.375Z,0.20
2022-09-02T19:45:51.166Z,0.20
2022-09-02T19:48:19.923Z,0.20
2022-09-02T19:50:48.596Z,0.20
2022-09-02T19:53:18.286Z,0.20
2022-09-02T19:55:45.886Z,0.20
2022-09-02T19:58:13.460Z,0.20
2022-09-02T20:00:42.217Z,0.20
2022-09-02T20:03:11.858Z,0.20
2022-09-02T20:05:40.972Z,0.20
2022-09-02T20:08:09.261Z,0.20
2022-09-02T20:10:37.132Z,0.20
2022-09-02T20:13:05.009Z,0.20
2022-09-02T20:15:32.681Z,0.20
2022-09-02T20:18:05.888Z,0.20
2022-09-02T20:20:35.030Z,0.20
2022-09-02T20:23:02.800Z,0.20
2022-09-02T20:25:35.161Z,0.20
2022-09-02T20:28:07.137Z,0.20
2022-09-02T20:30:36.935Z,0.20
2022-09-02T20:33:12.628Z,0.20
2022-09-02T20:35:46.234Z,0.20
2022-09-02T20:38:21.536Z,0.20
2022-09-02T20:40:52.299Z,0.20
2022-09-02T20:43:36.119Z,0.20
2022-09-02T20:46:09.930Z,0.20
2022-09-02T20:48:44.772Z,0.20
2022-09-02T20:51:17.120Z,0.20
2022-09-02T20:54:00.788Z,0.20
2022-09-02T20:56:32.900Z,0.20
2022-09-02T20:59:12.222Z,0.20
2022-09-02T21:01:40.907Z,0.20
2022-09-02T21:04:28.231Z,0.20
2022-09-02T21:07:01.267Z,0.20
2022-09-02T21:09:34.943Z,0.25
2022-09-02T21:12:04.672Z,0.30
2022-09-02T21:14:36.501Z,0.30
2022-09-02T21:17:05.724Z,0.20
2022-09-02T21:19:36.180Z,0.22
2022-09-02T21:22:09.383Z,0.20
2022-09-02T21:24:39.276Z,0.20
2022-09-02T21:27:12.327Z,0.20
2022-09-02T21:29:42.527Z,0.30
2022-09-02T21:32:14.272Z,0.25
2022-09-02T21:34:44.488Z,0.30
2022-09-02T21:37:14.343Z,0.20
2022-09-02T21:39:44.069Z,0.20
2022-09-02T21:42:19.903Z,0.20
2022-09-02T21:44:53.617Z,0.22
2022-09-02T21:47:23.015Z,0.20
2022-09-02T21:50:01.746Z,0.30
2022-09-02T21:52:36.395Z,0.20
2022-09-02T21:55:08.591Z,0.20
2022-09-02T21:57:42.902Z,0.20
2022-09-02T22:00:11.768Z,0.20
2022-09-02T22:02:50.137Z,0.20
2022-09-02T22:05:24.011Z,0.30
2022-09-02T22:07:57.715Z,0.20
2022-09-02T22:10:28.643Z,0.20
2022-09-02T22:12:58.646Z,0.30
2022-09-02T22:15:33.360Z,0.20
2022-09-02T22:18:10.809Z,0.20
2022-09-02T22:20:40.654Z,0.20
2022-09-02T22:23:15.700Z,0.30
2022-09-02T22:25:44.219Z,0.30
2022-09-02T22:28:15.373Z,0.20
2022-09-02T22:30:46.028Z,0.22
2022-09-02T22:33:15.100Z,0.20
2022-09-02T22:35:45.907Z,0.20
2022-09-02T22:38:21.773Z,0.30
2022-09-02T22:40:50.590Z,0.30
2022-09-02T22:43:23.479Z,0.20
2022-09-02T22:46:12.900Z,0.30
2022-09-02T22:49:00.431Z,0.28
2022-09-02T22:51:48.172Z,0.20
2022-09-02T22:54:17.465Z,0.20
2022-09-02T22:56:50.246Z,0.20
2022-09-02T22:59:26.386Z,0.28
2022-09-02T23:01:59.651Z,0.20
2022-09-02T23:04:34.576Z,0.30
2022-09-02T23:07:05.161Z,0.30
2022-09-02T23:09:36.521Z,0.30
2022-09-02T23:12:10.139Z,0.20
2022-09-02T23:14:44.229Z,0.25
2022-09-02T23:17:20.547Z,0.20
2022-09-02T23:19:56.857Z,0.30
2022-09-02T23:22:34.005Z,0.20
2022-09-02T23:25:15.206Z,0.30
2022-09-02T23:27:45.258Z,0.20
2022-09-02T23:30:14.750Z,0.20
2022-09-02T23:32:55.742Z,0.20
2022-09-02T23:35:27.000Z,0.30
2022-09-02T23:38:05.363Z,0.20
2022-09-02T23:40:37.258Z,0.30
2022-09-02T23:43:04.876Z,0.30
2022-09-02T23:45:33.828Z,0.20
2022-09-02T23:48:07.133Z,0.20
2022-09-02T23:50:59.844Z,0.30
2022-09-02T23:53:32.558Z,0.30
2022-09-02T23:56:08.442Z,0.30
2022-09-02T23:58:43.473Z,0.30
